Wisdom, Montana
Current Conditions -  °F | °C
As of 2:53 PM on Thursday 23 Oct 2014 (Local Time) from KDLN Reporting Station
Broken Clouds Broken Clouds  
Wind Chill: 60°   Ceiling: 9000
Heat Index: 60°   Visibility: 10mi
Dew Point: 36°   Wind: 10mph
Humidity: 41%   Direction: 230°SW
Pressure: 29.96"   Gusts: NA
Location:  45.61°N, 113.44°W
Report Text: KDLN 232053Z AUTO 23009KT 10SM BKN090 16/02 A2996 RMK AO2 SLP116 T01560022 56020
Loading
Personal Weather Stations






























Interactive Weather Map
Tropical Storm Tracking
New forecast layout! Learn more

10-Day Weather Forecast

Advertisements
Track Severe Weather on mobile